sensor_id;sensor_type;location;lat;lon;timestamp;P1;durP1;ratioP1;P2;durP2;ratioP2
31336;SDS011;22846;42.654;23.314;2023-07-08T00:00:46;15.40;;;11.68;;
31336;SDS011;22846;42.654;23.314;2023-07-08T00:03:14;15.65;;;11.57;;
31336;SDS011;22846;42.654;23.314;2023-07-08T00:05:40;13.38;;;11.60;;
31336;SDS011;22846;42.654;23.314;2023-07-08T00:08:13;13.20;;;10.75;;
31336;SDS011;22846;42.654;23.314;2023-07-08T00:10:39;16.08;;;11.15;;
31336;SDS011;22846;42.654;23.314;2023-07-08T00:13:05;17.48;;;11.88;;
31336;SDS011;22846;42.654;23.314;2023-07-08T00:15:31;19.63;;;12.00;;
31336;SDS011;22846;42.654;23.314;2023-07-08T00:17:58;14.02;;;11.82;;
31336;SDS011;22846;42.654;23.314;2023-07-08T00:22:55;13.88;;;11.77;;
31336;SDS011;22846;42.654;23.314;2023-07-08T00:25:21;14.75;;;11.93;;
31336;SDS011;22846;42.654;23.314;2023-07-08T00:27:47;14.75;;;11.85;;
31336;SDS011;22846;42.654;23.314;2023-07-08T00:30:21;14.02;;;11.88;;
31336;SDS011;22846;42.654;23.314;2023-07-08T00:32:54;15.38;;;12.35;;
31336;SDS011;22846;42.654;23.314;2023-07-08T00:35:26;15.30;;;12.18;;
31336;SDS011;22846;42.654;23.314;2023-07-08T00:37:56;14.43;;;12.00;;
31336;SDS011;22846;42.654;23.314;2023-07-08T00:40:29;15.43;;;11.82;;
31336;SDS011;22846;42.654;23.314;2023-07-08T00:42:56;16.38;;;12.32;;
31336;SDS011;22846;42.654;23.314;2023-07-08T00:48:15;17.17;;;11.75;;
31336;SDS011;22846;42.654;23.314;2023-07-08T00:51:08;14.50;;;11.43;;
31336;SDS011;22846;42.654;23.314;2023-07-08T00:53:38;15.88;;;12.10;;
31336;SDS011;22846;42.654;23.314;2023-07-08T00:56:06;15.13;;;11.68;;
31336;SDS011;22846;42.654;23.314;2023-07-08T00:58:43;13.02;;;11.10;;
31336;SDS011;22846;42.654;23.314;2023-07-08T01:01:15;13.32;;;11.25;;
31336;SDS011;22846;42.654;23.314;2023-07-08T01:03:43;16.00;;;11.63;;
31336;SDS011;22846;42.654;23.314;2023-07-08T01:06:14;15.90;;;11.60;;
31336;SDS011;22846;42.654;23.314;2023-07-08T01:08:41;16.50;;;12.00;;
31336;SDS011;22846;42.654;23.314;2023-07-08T01:11:07;12.98;;;11.02;;
31336;SDS011;22846;42.654;23.314;2023-07-08T01:13:34;13.18;;;11.30;;
31336;SDS011;22846;42.654;23.314;2023-07-08T01:16:05;13.88;;;11.05;;
31336;SDS011;22846;42.654;23.314;2023-07-08T01:18:32;13.20;;;10.48;;
31336;SDS011;22846;42.654;23.314;2023-07-08T01:21:06;13.85;;;11.40;;
31336;SDS011;22846;42.654;23.314;2023-07-08T01:24:01;16.98;;;10.70;;
31336;SDS011;22846;42.654;23.314;2023-07-08T01:26:30;13.63;;;10.50;;
31336;SDS011;22846;42.654;23.314;2023-07-08T01:28:57;12.65;;;10.65;;
31336;SDS011;22846;42.654;23.314;2023-07-08T01:31:23;13.30;;;10.73;;
31336;SDS011;22846;42.654;23.314;2023-07-08T01:33:49;16.05;;;11.27;;
31336;SDS011;22846;42.654;23.314;2023-07-08T01:36:16;13.88;;;10.27;;
31336;SDS011;22846;42.654;23.314;2023-07-08T01:38:42;12.50;;;10.77;;
31336;SDS011;22846;42.654;23.314;2023-07-08T01:41:13;13.68;;;10.35;;
31336;SDS011;22846;42.654;23.314;2023-07-08T01:43:41;11.88;;;9.93;;
31336;SDS011;22846;42.654;23.314;2023-07-08T01:46:18;13.07;;;10.25;;
31336;SDS011;22846;42.654;23.314;2023-07-08T01:48:48;12.55;;;10.48;;
31336;SDS011;22846;42.654;23.314;2023-07-08T01:51:16;14.52;;;10.30;;
31336;SDS011;22846;42.654;23.314;2023-07-08T01:53:42;14.90;;;10.30;;
31336;SDS011;22846;42.654;23.314;2023-07-08T01:56:09;14.95;;;9.95;;
31336;SDS011;22846;42.654;23.314;2023-07-08T01:58:36;13.18;;;10.32;;
31336;SDS011;22846;42.654;23.314;2023-07-08T02:01:02;17.92;;;10.27;;
31336;SDS011;22846;42.654;23.314;2023-07-08T02:03:27;11.77;;;9.85;;
31336;SDS011;22846;42.654;23.314;2023-07-08T02:05:53;11.93;;;9.15;;
31336;SDS011;22846;42.654;23.314;2023-07-08T02:08:19;11.73;;;9.02;;
31336;SDS011;22846;42.654;23.314;2023-07-08T02:10:48;12.35;;;9.35;;
31336;SDS011;22846;42.654;23.314;2023-07-08T02:13:15;12.23;;;9.32;;
31336;SDS011;22846;42.654;23.314;2023-07-08T02:15:41;13.98;;;8.90;;
31336;SDS011;22846;42.654;23.314;2023-07-08T02:18:06;12.55;;;9.32;;
31336;SDS011;22846;42.654;23.314;2023-07-08T02:20:31;13.68;;;9.80;;
31336;SDS011;22846;42.654;23.314;2023-07-08T02:22:57;10.45;;;9.02;;
31336;SDS011;22846;42.654;23.314;2023-07-08T02:25:23;11.93;;;9.25;;
31336;SDS011;22846;42.654;23.314;2023-07-08T02:27:48;13.43;;;8.80;;
31336;SDS011;22846;42.654;23.314;2023-07-08T02:30:13;13.43;;;9.63;;
31336;SDS011;22846;42.654;23.314;2023-07-08T02:32:39;13.75;;;8.95;;
31336;SDS011;22846;42.654;23.314;2023-07-08T02:35:05;12.95;;;9.02;;
31336;SDS011;22846;42.654;23.314;2023-07-08T02:37:32;10.60;;;9.13;;
31336;SDS011;22846;42.654;23.314;2023-07-08T02:39:57;13.32;;;9.02;;
31336;SDS011;22846;42.654;23.314;2023-07-08T02:42:23;12.13;;;9.43;;
31336;SDS011;22846;42.654;23.314;2023-07-08T02:44:49;11.52;;;9.32;;
31336;SDS011;22846;42.654;23.314;2023-07-08T02:47:14;13.68;;;9.32;;
31336;SDS011;22846;42.654;23.314;2023-07-08T02:49:40;10.35;;;8.93;;
31336;SDS011;22846;42.654;23.314;2023-07-08T02:52:05;10.98;;;9.27;;
31336;SDS011;22846;42.654;23.314;2023-07-08T02:54:31;11.40;;;8.63;;
31336;SDS011;22846;42.654;23.314;2023-07-08T02:56:56;13.13;;;9.48;;
31336;SDS011;22846;42.654;23.314;2023-07-08T02:59:22;10.57;;;8.90;;
31336;SDS011;22846;42.654;23.314;2023-07-08T03:01:47;10.40;;;8.45;;
31336;SDS011;22846;42.654;23.314;2023-07-08T03:04:13;11.27;;;9.30;;
31336;SDS011;22846;42.654;23.314;2023-07-08T03:06:43;11.80;;;8.73;;
31336;SDS011;22846;42.654;23.314;2023-07-08T03:09:09;12.15;;;9.20;;
31336;SDS011;22846;42.654;23.314;2023-07-08T03:11:37;12.57;;;8.82;;
31336;SDS011;22846;42.654;23.314;2023-07-08T03:14:03;10.05;;;8.90;;
31336;SDS011;22846;42.654;23.314;2023-07-08T03:16:28;14.43;;;8.77;;
31336;SDS011;22846;42.654;23.314;2023-07-08T03:18:54;12.00;;;8.32;;
31336;SDS011;22846;42.654;23.314;2023-07-08T03:21:19;10.50;;;8.43;;
31336;SDS011;22846;42.654;23.314;2023-07-08T03:23:45;9.60;;;8.05;;
31336;SDS011;22846;42.654;23.314;2023-07-08T03:26:25;9.30;;;8.05;;
31336;SDS011;22846;42.654;23.314;2023-07-08T03:28:53;8.45;;;7.43;;
31336;SDS011;22846;42.654;23.314;2023-07-08T03:31:19;8.77;;;7.70;;
31336;SDS011;22846;42.654;23.314;2023-07-08T03:33:44;10.68;;;7.88;;
31336;SDS011;22846;42.654;23.314;2023-07-08T03:36:14;9.05;;;7.93;;
31336;SDS011;22846;42.654;23.314;2023-07-08T03:38:51;13.43;;;7.95;;
31336;SDS011;22846;42.654;23.314;2023-07-08T03:41:18;12.20;;;7.32;;
31336;SDS011;22846;42.654;23.314;2023-07-08T03:43:44;10.40;;;7.15;;
31336;SDS011;22846;42.654;23.314;2023-07-08T03:46:10;8.82;;;7.60;;
31336;SDS011;22846;42.654;23.314;2023-07-08T03:48:37;9.20;;;7.28;;
31336;SDS011;22846;42.654;23.314;2023-07-08T03:51:03;10.75;;;7.40;;
31336;SDS011;22846;42.654;23.314;2023-07-08T03:53:28;9.27;;;6.82;;
31336;SDS011;22846;42.654;23.314;2023-07-08T03:55:54;9.65;;;7.45;;
31336;SDS011;22846;42.654;23.314;2023-07-08T03:58:19;10.00;;;7.13;;
31336;SDS011;22846;42.654;23.314;2023-07-08T04:00:44;12.20;;;7.30;;
31336;SDS011;22846;42.654;23.314;2023-07-08T04:03:10;11.02;;;7.50;;
31336;SDS011;22846;42.654;23.314;2023-07-08T04:05:36;11.20;;;6.75;;
31336;SDS011;22846;42.654;23.314;2023-07-08T04:08:02;10.23;;;7.13;;
31336;SDS011;22846;42.654;23.314;2023-07-08T04:10:27;9.93;;;6.72;;
31336;SDS011;22846;42.654;23.314;2023-07-08T04:12:52;9.15;;;7.25;;
31336;SDS011;22846;42.654;23.314;2023-07-08T04:15:18;8.52;;;6.53;;
31336;SDS011;22846;42.654;23.314;2023-07-08T04:17:45;8.77;;;6.68;;
31336;SDS011;22846;42.654;23.314;2023-07-08T04:20:15;9.63;;;6.32;;
31336;SDS011;22846;42.654;23.314;2023-07-08T04:22:43;11.52;;;6.60;;
31336;SDS011;22846;42.654;23.314;2023-07-08T04:25:09;9.65;;;6.45;;
31336;SDS011;22846;42.654;23.314;2023-07-08T04:27:36;8.15;;;6.85;;
31336;SDS011;22846;42.654;23.314;2023-07-08T04:30:02;7.30;;;6.25;;
31336;SDS011;22846;42.654;23.314;2023-07-08T04:32:29;8.55;;;6.25;;
31336;SDS011;22846;42.654;23.314;2023-07-08T04:34:54;8.32;;;6.50;;
31336;SDS011;22846;42.654;23.314;2023-07-08T04:37:20;7.97;;;6.53;;
31336;SDS011;22846;42.654;23.314;2023-07-08T04:39:45;10.35;;;6.72;;
31336;SDS011;22846;42.654;23.314;2023-07-08T04:42:11;10.93;;;7.15;;
31336;SDS011;22846;42.654;23.314;2023-07-08T04:44:42;8.73;;;6.40;;
31336;SDS011;22846;42.654;23.314;2023-07-08T04:47:08;9.60;;;6.85;;
31336;SDS011;22846;42.654;23.314;2023-07-08T04:49:39;9.35;;;6.75;;
31336;SDS011;22846;42.654;23.314;2023-07-08T04:52:05;8.15;;;6.72;;
31336;SDS011;22846;42.654;23.314;2023-07-08T04:54:31;9.68;;;6.97;;
31336;SDS011;22846;42.654;23.314;2023-07-08T04:56:56;8.77;;;6.65;;
31336;SDS011;22846;42.654;23.314;2023-07-08T04:59:22;9.45;;;6.50;;
31336;SDS011;22846;42.654;23.314;2023-07-08T05:01:51;8.10;;;6.57;;
31336;SDS011;22846;42.654;23.314;2023-07-08T05:04:17;8.90;;;6.80;;
31336;SDS011;22846;42.654;23.314;2023-07-08T05:06:44;12.10;;;7.72;;
31336;SDS011;22846;42.654;23.314;2023-07-08T05:09:09;7.50;;;6.70;;
31336;SDS011;22846;42.654;23.314;2023-07-08T05:11:35;9.57;;;6.60;;
31336;SDS011;22846;42.654;23.314;2023-07-08T05:14:01;10.57;;;6.43;;
31336;SDS011;22846;42.654;23.314;2023-07-08T05:16:27;8.98;;;6.68;;
31336;SDS011;22846;42.654;23.314;2023-07-08T05:18:53;9.00;;;6.25;;
31336;SDS011;22846;42.654;23.314;2023-07-08T05:21:18;9.00;;;6.80;;
31336;SDS011;22846;42.654;23.314;2023-07-08T05:23:45;9.20;;;6.53;;
31336;SDS011;22846;42.654;23.314;2023-07-08T05:26:11;8.32;;;6.68;;
31336;SDS011;22846;42.654;23.314;2023-07-08T05:28:37;9.05;;;5.70;;
31336;SDS011;22846;42.654;23.314;2023-07-08T05:31:02;9.57;;;6.55;;
31336;SDS011;22846;42.654;23.314;2023-07-08T05:33:28;11.00;;;6.22;;
31336;SDS011;22846;42.654;23.314;2023-07-08T05:35:55;8.90;;;6.25;;
31336;SDS011;22846;42.654;23.314;2023-07-08T05:38:21;8.60;;;6.25;;
31336;SDS011;22846;42.654;23.314;2023-07-08T05:40:50;7.15;;;5.90;;
31336;SDS011;22846;42.654;23.314;2023-07-08T05:43:19;8.48;;;6.20;;
31336;SDS011;22846;42.654;23.314;2023-07-08T05:45:44;8.98;;;5.65;;
31336;SDS011;22846;42.654;23.314;2023-07-08T05:48:10;8.48;;;6.28;;
31336;SDS011;22846;42.654;23.314;2023-07-08T05:50:35;7.53;;;6.07;;
31336;SDS011;22846;42.654;23.314;2023-07-08T05:53:01;9.63;;;6.35;;
31336;SDS011;22846;42.654;23.314;2023-07-08T05:55:26;7.85;;;5.82;;
31336;SDS011;22846;42.654;23.314;2023-07-08T05:57:52;9.60;;;6.00;;
31336;SDS011;22846;42.654;23.314;2023-07-08T06:00:17;7.28;;;6.10;;
31336;SDS011;22846;42.654;23.314;2023-07-08T06:02:42;7.82;;;5.47;;
31336;SDS011;22846;42.654;23.314;2023-07-08T06:05:08;9.27;;;6.03;;
31336;SDS011;22846;42.654;23.314;2023-07-08T06:07:34;7.95;;;5.78;;
31336;SDS011;22846;42.654;23.314;2023-07-08T06:09:59;9.57;;;6.22;;
31336;SDS011;22846;42.654;23.314;2023-07-08T06:12:25;10.30;;;6.25;;
31336;SDS011;22846;42.654;23.314;2023-07-08T06:14:50;12.48;;;6.30;;
31336;SDS011;22846;42.654;23.314;2023-07-08T06:17:16;8.40;;;5.93;;
31336;SDS011;22846;42.654;23.314;2023-07-08T06:19:42;9.38;;;5.80;;
31336;SDS011;22846;42.654;23.314;2023-07-08T06:22:08;7.82;;;6.07;;
31336;SDS011;22846;42.654;23.314;2023-07-08T06:24:33;8.88;;;6.40;;
31336;SDS011;22846;42.654;23.314;2023-07-08T06:26:59;8.65;;;5.85;;
31336;SDS011;22846;42.654;23.314;2023-07-08T06:29:24;9.18;;;5.90;;
31336;SDS011;22846;42.654;23.314;2023-07-08T06:31:50;7.35;;;5.70;;
31336;SDS011;22846;42.654;23.314;2023-07-08T06:34:15;7.93;;;6.30;;
31336;SDS011;22846;42.654;23.314;2023-07-08T06:36:41;8.10;;;6.10;;
31336;SDS011;22846;42.654;23.314;2023-07-08T06:39:07;8.52;;;5.60;;
31336;SDS011;22846;42.654;23.314;2023-07-08T06:41:33;7.80;;;5.78;;
31336;SDS011;22846;42.654;23.314;2023-07-08T06:43:59;8.45;;;5.10;;
31336;SDS011;22846;42.654;23.314;2023-07-08T06:46:24;7.07;;;5.57;;
31336;SDS011;22846;42.654;23.314;2023-07-08T06:48:50;14.30;;;5.47;;
31336;SDS011;22846;42.654;23.314;2023-07-08T06:51:15;6.60;;;5.15;;
31336;SDS011;22846;42.654;23.314;2023-07-08T06:53:40;8.48;;;5.57;;
31336;SDS011;22846;42.654;23.314;2023-07-08T06:56:06;9.40;;;5.22;;
31336;SDS011;22846;42.654;23.314;2023-07-08T06:58:31;11.15;;;5.47;;
31336;SDS011;22846;42.654;23.314;2023-07-08T07:00:57;7.53;;;5.05;;
31336;SDS011;22846;42.654;23.314;2023-07-08T07:03:24;6.95;;;5.10;;
31336;SDS011;22846;42.654;23.314;2023-07-08T07:05:49;5.78;;;5.18;;
31336;SDS011;22846;42.654;23.314;2023-07-08T07:08:15;5.72;;;4.57;;
31336;SDS011;22846;42.654;23.314;2023-07-08T07:10:40;10.50;;;4.90;;
31336;SDS011;22846;42.654;23.314;2023-07-08T07:13:05;5.43;;;4.15;;
31336;SDS011;22846;42.654;23.314;2023-07-08T07:15:31;8.07;;;4.55;;
31336;SDS011;22846;42.654;23.314;2023-07-08T07:17:57;8.48;;;4.82;;
31336;SDS011;22846;42.654;23.314;2023-07-08T07:20:23;6.55;;;4.80;;
31336;SDS011;22846;42.654;23.314;2023-07-08T07:22:49;6.75;;;4.32;;
31336;SDS011;22846;42.654;23.314;2023-07-08T07:25:14;6.22;;;4.30;;
31336;SDS011;22846;42.654;23.314;2023-07-08T07:27:40;4.38;;;3.97;;
31336;SDS011;22846;42.654;23.314;2023-07-08T07:30:05;6.60;;;4.07;;
31336;SDS011;22846;42.654;23.314;2023-07-08T07:32:31;5.72;;;4.38;;
31336;SDS011;22846;42.654;23.314;2023-07-08T07:34:59;6.95;;;4.28;;
31336;SDS011;22846;42.654;23.314;2023-07-08T07:37:25;7.75;;;4.72;;
31336;SDS011;22846;42.654;23.314;2023-07-08T07:39:50;6.45;;;4.78;;
31336;SDS011;22846;42.654;23.314;2023-07-08T07:42:16;6.95;;;4.50;;
31336;SDS011;22846;42.654;23.314;2023-07-08T07:44:43;10.35;;;5.18;;
31336;SDS011;22846;42.654;23.314;2023-07-08T07:47:09;5.03;;;4.22;;
31336;SDS011;22846;42.654;23.314;2023-07-08T07:49:35;5.03;;;4.40;;
31336;SDS011;22846;42.654;23.314;2023-07-08T07:52:01;6.80;;;4.00;;
31336;SDS011;22846;42.654;23.314;2023-07-08T07:54:27;4.60;;;4.20;;
31336;SDS011;22846;42.654;23.314;2023-07-08T07:56:52;5.50;;;4.00;;
31336;SDS011;22846;42.654;23.314;2023-07-08T07:59:18;4.15;;;3.63;;
31336;SDS011;22846;42.654;23.314;2023-07-08T08:01:44;4.90;;;3.90;;
31336;SDS011;22846;42.654;23.314;2023-07-08T08:04:09;9.77;;;4.13;;
31336;SDS011;22846;42.654;23.314;2023-07-08T08:06:35;9.57;;;4.50;;
31336;SDS011;22846;42.654;23.314;2023-07-08T08:09:02;6.47;;;3.83;;
31336;SDS011;22846;42.654;23.314;2023-07-08T08:11:28;6.88;;;5.40;;
31336;SDS011;22846;42.654;23.314;2023-07-08T08:13:54;11.38;;;7.15;;
31336;SDS011;22846;42.654;23.314;2023-07-08T08:16:19;6.80;;;5.85;;
31336;SDS011;22846;42.654;23.314;2023-07-08T08:18:46;12.77;;;6.72;;
31336;SDS011;22846;42.654;23.314;2023-07-08T08:21:11;15.77;;;7.50;;
31336;SDS011;22846;42.654;23.314;2023-07-08T08:23:37;9.80;;;6.90;;
31336;SDS011;22846;42.654;23.314;2023-07-08T08:26:02;13.98;;;7.25;;
31336;SDS011;22846;42.654;23.314;2023-07-08T08:28:27;12.77;;;7.38;;
31336;SDS011;22846;42.654;23.314;2023-07-08T08:30:53;9.95;;;6.57;;
31336;SDS011;22846;42.654;23.314;2023-07-08T08:33:19;9.05;;;6.38;;
31336;SDS011;22846;42.654;23.314;2023-07-08T08:35:45;9.82;;;6.35;;
31336;SDS011;22846;42.654;23.314;2023-07-08T08:38:10;11.52;;;6.40;;
31336;SDS011;22846;42.654;23.314;2023-07-08T08:40:36;12.50;;;7.00;;
31336;SDS011;22846;42.654;23.314;2023-07-08T08:43:05;12.95;;;6.13;;
31336;SDS011;22846;42.654;23.314;2023-07-08T08:48:24;10.45;;;6.05;;
31336;SDS011;22846;42.654;23.314;2023-07-08T08:51:03;8.50;;;6.07;;
31336;SDS011;22846;42.654;23.314;2023-07-08T08:53:34;10.27;;;5.88;;
31336;SDS011;22846;42.654;23.314;2023-07-08T08:56:03;10.52;;;5.93;;
31336;SDS011;22846;42.654;23.314;2023-07-08T08:58:45;9.32;;;6.07;;
31336;SDS011;22846;42.654;23.314;2023-07-08T09:01:19;12.75;;;6.07;;
31336;SDS011;22846;42.654;23.314;2023-07-08T09:03:49;10.65;;;6.38;;
31336;SDS011;22846;42.654;23.314;2023-07-08T09:06:26;9.65;;;5.75;;
31336;SDS011;22846;42.654;23.314;2023-07-08T09:08:54;16.08;;;5.60;;
31336;SDS011;22846;42.654;23.314;2023-07-08T09:14:01;11.05;;;6.13;;
31336;SDS011;22846;42.654;23.314;2023-07-08T09:19:14;21.38;;;10.68;;
31336;SDS011;22846;42.654;23.314;2023-07-08T09:21:55;32.55;;;24.35;;
31336;SDS011;22846;42.654;23.314;2023-07-08T09:27:07;20.95;;;11.40;;
31336;SDS011;22846;42.654;23.314;2023-07-08T09:29:33;15.25;;;10.55;;
31336;SDS011;22846;42.654;23.314;2023-07-08T09:31:59;13.98;;;9.85;;
31336;SDS011;22846;42.654;23.314;2023-07-08T09:34:38;15.07;;;10.18;;
31336;SDS011;22846;42.654;23.314;2023-07-08T09:37:27;14.68;;;9.48;;
31336;SDS011;22846;42.654;23.314;2023-07-08T09:39:59;17.55;;;9.55;;
31336;SDS011;22846;42.654;23.314;2023-07-08T09:42:30;12.40;;;8.98;;
31336;SDS011;22846;42.654;23.314;2023-07-08T09:44:58;17.67;;;8.90;;
31336;SDS011;22846;42.654;23.314;2023-07-08T09:47:27;13.82;;;8.60;;
31336;SDS011;22846;42.654;23.314;2023-07-08T09:49:58;12.30;;;8.32;;
31336;SDS011;22846;42.654;23.314;2023-07-08T09:52:24;13.70;;;9.18;;
31336;SDS011;22846;42.654;23.314;2023-07-08T09:54:50;10.75;;;8.48;;
31336;SDS011;22846;42.654;23.314;2023-07-08T09:59:52;13.55;;;8.82;;
31336;SDS011;22846;42.654;23.314;2023-07-08T10:02:29;13.30;;;8.13;;
31336;SDS011;22846;42.654;23.314;2023-07-08T10:05:18;10.55;;;7.78;;
31336;SDS011;22846;42.654;23.314;2023-07-08T10:07:58;9.18;;;7.25;;
31336;SDS011;22846;42.654;23.314;2023-07-08T10:10:30;9.50;;;7.10;;
31336;SDS011;22846;42.654;23.314;2023-07-08T10:15:50;10.88;;;7.22;;
31336;SDS011;22846;42.654;23.314;2023-07-08T10:18:45;13.02;;;7.85;;
31336;SDS011;22846;42.654;23.314;2023-07-08T10:21:20;12.75;;;6.72;;
31336;SDS011;22846;42.654;23.314;2023-07-08T10:26:36;13.10;;;7.57;;
31336;SDS011;22846;42.654;23.314;2023-07-08T10:31:38;10.80;;;7.35;;
31336;SDS011;22846;42.654;23.314;2023-07-08T10:45:24;8.48;;;6.13;;
31336;SDS011;22846;42.654;23.314;2023-07-08T10:58:40;6.80;;;6.07;;
31336;SDS011;22846;42.654;23.314;2023-07-08T11:01:48;8.35;;;6.28;;
31336;SDS011;22846;42.654;23.314;2023-07-08T11:07:30;6.82;;;6.13;;
31336;SDS011;22846;42.654;23.314;2023-07-08T11:10:11;7.65;;;5.85;;
31336;SDS011;22846;42.654;23.314;2023-07-08T11:12:47;7.10;;;5.60;;
31336;SDS011;22846;42.654;23.314;2023-07-08T11:18:23;6.72;;;5.50;;
31336;SDS011;22846;42.654;23.314;2023-07-08T11:21:30;7.28;;;5.97;;
31336;SDS011;22846;42.654;23.314;2023-07-08T11:23:56;9.00;;;5.65;;
31336;SDS011;22846;42.654;23.314;2023-07-08T11:29:16;9.43;;;5.75;;
31336;SDS011;22846;42.654;23.314;2023-07-08T11:31:46;15.75;;;6.32;;
31336;SDS011;22846;42.654;23.314;2023-07-08T11:34:12;14.80;;;6.78;;
31336;SDS011;22846;42.654;23.314;2023-07-08T11:36:42;17.40;;;6.28;;
31336;SDS011;22846;42.654;23.314;2023-07-08T11:39:28;11.73;;;6.75;;
31336;SDS011;22846;42.654;23.314;2023-07-08T11:42:03;17.42;;;7.97;;
31336;SDS011;22846;42.654;23.314;2023-07-08T11:44:34;11.77;;;6.93;;
31336;SDS011;22846;42.654;23.314;2023-07-08T11:46:59;13.88;;;6.43;;
31336;SDS011;22846;42.654;23.314;2023-07-08T11:49:25;16.05;;;6.82;;
31336;SDS011;22846;42.654;23.314;2023-07-08T11:51:51;11.80;;;6.55;;
31336;SDS011;22846;42.654;23.314;2023-07-08T11:54:27;15.60;;;6.30;;
31336;SDS011;22846;42.654;23.314;2023-07-08T11:59:37;34.15;;;6.97;;
31336;SDS011;22846;42.654;23.314;2023-07-08T12:04:51;17.13;;;6.80;;
31336;SDS011;22846;42.654;23.314;2023-07-08T12:07:28;14.05;;;6.05;;
31336;SDS011;22846;42.654;23.314;2023-07-08T12:10:00;16.55;;;5.65;;
31336;SDS011;22846;42.654;23.314;2023-07-08T12:12:31;11.00;;;6.00;;
31336;SDS011;22846;42.654;23.314;2023-07-08T12:15:07;12.35;;;5.80;;
31336;SDS011;22846;42.654;23.314;2023-07-08T12:17:47;13.35;;;5.70;;
31336;SDS011;22846;42.654;23.314;2023-07-08T12:22:46;11.90;;;5.72;;
31336;SDS011;22846;42.654;23.314;2023-07-08T12:25:16;13.05;;;5.88;;
31336;SDS011;22846;42.654;23.314;2023-07-08T12:27:44;23.88;;;5.70;;
31336;SDS011;22846;42.654;23.314;2023-07-08T12:30:11;8.13;;;5.10;;
31336;SDS011;22846;42.654;23.314;2023-07-08T12:32:38;10.68;;;5.20;;
31336;SDS011;22846;42.654;23.314;2023-07-08T12:35:05;9.82;;;5.78;;
31336;SDS011;22846;42.654;23.314;2023-07-08T12:37:54;12.70;;;7.82;;
31336;SDS011;22846;42.654;23.314;2023-07-08T12:40:49;21.15;;;13.90;;
31336;SDS011;22846;42.654;23.314;2023-07-08T12:43:15;14.63;;;9.38;;
31336;SDS011;22846;42.654;23.314;2023-07-08T12:45:42;16.25;;;8.05;;
31336;SDS011;22846;42.654;23.314;2023-07-08T12:48:08;16.17;;;9.02;;
31336;SDS011;22846;42.654;23.314;2023-07-08T12:50:34;12.65;;;7.55;;
31336;SDS011;22846;42.654;23.314;2023-07-08T12:52:59;13.93;;;7.25;;
31336;SDS011;22846;42.654;23.314;2023-07-08T12:55:29;20.20;;;7.28;;
31336;SDS011;22846;42.654;23.314;2023-07-08T12:57:55;17.80;;;7.00;;
31336;SDS011;22846;42.654;23.314;2023-07-08T13:00:28;14.32;;;7.18;;
31336;SDS011;22846;42.654;23.314;2023-07-08T13:02:57;15.18;;;8.05;;
31336;SDS011;22846;42.654;23.314;2023-07-08T13:05:28;14.43;;;8.75;;
31336;SDS011;22846;42.654;23.314;2023-07-08T13:07:54;10.23;;;7.45;;
31336;SDS011;22846;42.654;23.314;2023-07-08T13:10:23;12.93;;;6.20;;
31336;SDS011;22846;42.654;23.314;2023-07-08T13:12:51;13.27;;;6.72;;
31336;SDS011;22846;42.654;23.314;2023-07-08T13:15:22;13.60;;;6.40;;
31336;SDS011;22846;42.654;23.314;2023-07-08T13:17:50;13.63;;;6.30;;
31336;SDS011;22846;42.654;23.314;2023-07-08T13:20:16;13.82;;;6.30;;
31336;SDS011;22846;42.654;23.314;2023-07-08T13:22:45;7.00;;;5.50;;
31336;SDS011;22846;42.654;23.314;2023-07-08T13:25:16;9.38;;;5.35;;
31336;SDS011;22846;42.654;23.314;2023-07-08T13:27:53;8.82;;;5.68;;
31336;SDS011;22846;42.654;23.314;2023-07-08T13:30:39;8.65;;;5.63;;
31336;SDS011;22846;42.654;23.314;2023-07-08T13:33:04;11.73;;;4.82;;
31336;SDS011;22846;42.654;23.314;2023-07-08T13:35:38;9.50;;;5.43;;
31336;SDS011;22846;42.654;23.314;2023-07-08T13:38:05;10.15;;;5.40;;
31336;SDS011;22846;42.654;23.314;2023-07-08T13:40:37;8.95;;;4.78;;
31336;SDS011;22846;42.654;23.314;2023-07-08T13:43:09;7.88;;;4.90;;
31336;SDS011;22846;42.654;23.314;2023-07-08T13:45:34;9.82;;;4.70;;
31336;SDS011;22846;42.654;23.314;2023-07-08T13:48:12;10.27;;;4.80;;
31336;SDS011;22846;42.654;23.314;2023-07-08T13:50:47;7.75;;;5.13;;
31336;SDS011;22846;42.654;23.314;2023-07-08T13:53:18;11.95;;;6.25;;
31336;SDS011;22846;42.654;23.314;2023-07-08T13:56:10;11.25;;;5.70;;
31336;SDS011;22846;42.654;23.314;2023-07-08T13:59:04;12.10;;;5.32;;
31336;SDS011;22846;42.654;23.314;2023-07-08T14:01:35;9.15;;;5.20;;
31336;SDS011;22846;42.654;23.314;2023-07-08T14:04:04;10.15;;;5.18;;
31336;SDS011;22846;42.654;23.314;2023-07-08T14:06:39;9.48;;;4.45;;
31336;SDS011;22846;42.654;23.314;2023-07-08T14:09:38;7.93;;;4.72;;
31336;SDS011;22846;42.654;23.314;2023-07-08T14:11:56;11.13;;;5.07;;
31336;SDS011;22846;42.654;23.314;2023-07-08T14:14:22;8.05;;;4.80;;
31336;SDS011;22846;42.654;23.314;2023-07-08T14:16:48;9.50;;;4.80;;
31336;SDS011;22846;42.654;23.314;2023-07-08T14:19:20;10.05;;;4.90;;
31336;SDS011;22846;42.654;23.314;2023-07-08T14:21:53;9.60;;;4.45;;
31336;SDS011;22846;42.654;23.314;2023-07-08T14:24:20;9.88;;;3.90;;
31336;SDS011;22846;42.654;23.314;2023-07-08T14:26:46;6.25;;;4.68;;
31336;SDS011;22846;42.654;23.314;2023-07-08T14:29:12;7.72;;;4.78;;
31336;SDS011;22846;42.654;23.314;2023-07-08T14:31:38;10.57;;;5.43;;
31336;SDS011;22846;42.654;23.314;2023-07-08T14:34:08;9.23;;;5.13;;
31336;SDS011;22846;42.654;23.314;2023-07-08T14:36:36;7.70;;;5.28;;
31336;SDS011;22846;42.654;23.314;2023-07-08T14:39:07;9.23;;;5.20;;
31336;SDS011;22846;42.654;23.314;2023-07-08T14:41:36;10.50;;;5.03;;
31336;SDS011;22846;42.654;23.314;2023-07-08T14:44:02;10.52;;;4.88;;
31336;SDS011;22846;42.654;23.314;2023-07-08T14:46:27;7.30;;;4.72;;
31336;SDS011;22846;42.654;23.314;2023-07-08T14:48:53;10.95;;;4.72;;
31336;SDS011;22846;42.654;23.314;2023-07-08T14:51:18;12.07;;;4.70;;
31336;SDS011;22846;42.654;23.314;2023-07-08T14:53:43;14.07;;;5.57;;
31336;SDS011;22846;42.654;23.314;2023-07-08T14:56:14;9.23;;;4.45;;
31336;SDS011;22846;42.654;23.314;2023-07-08T14:58:42;8.85;;;4.28;;
31336;SDS011;22846;42.654;23.314;2023-07-08T15:01:11;12.93;;;4.65;;
31336;SDS011;22846;42.654;23.314;2023-07-08T15:03:43;8.15;;;4.38;;
31336;SDS011;22846;42.654;23.314;2023-07-08T15:06:09;8.88;;;4.30;;
31336;SDS011;22846;42.654;23.314;2023-07-08T15:08:35;8.07;;;4.20;;
31336;SDS011;22846;42.654;23.314;2023-07-08T15:11:01;5.75;;;3.88;;
31336;SDS011;22846;42.654;23.314;2023-07-08T15:13:27;12.13;;;4.68;;
31336;SDS011;22846;42.654;23.314;2023-07-08T15:15:54;9.30;;;4.60;;
31336;SDS011;22846;42.654;23.314;2023-07-08T15:18:20;10.27;;;4.80;;
31336;SDS011;22846;42.654;23.314;2023-07-08T15:20:45;9.82;;;4.60;;
31336;SDS011;22846;42.654;23.314;2023-07-08T15:23:11;8.15;;;4.22;;
31336;SDS011;22846;42.654;23.314;2023-07-08T15:25:40;6.63;;;4.03;;
31336;SDS011;22846;42.654;23.314;2023-07-08T15:28:09;9.35;;;4.28;;
31336;SDS011;22846;42.654;23.314;2023-07-08T15:30:41;7.65;;;4.53;;
31336;SDS011;22846;42.654;23.314;2023-07-08T15:33:10;7.45;;;4.10;;
31336;SDS011;22846;42.654;23.314;2023-07-08T15:35:38;8.15;;;4.57;;
31336;SDS011;22846;42.654;23.314;2023-07-08T15:38:04;8.73;;;3.83;;
31336;SDS011;22846;42.654;23.314;2023-07-08T15:40:31;7.28;;;3.95;;